• Join FlightAware (Why Join?)
  • Login
  • US Flag 
03:08PM EDT


 

Airport Tracker/Info


-or-


 

Live Flight TrackerFlight Track Log ✈ N4226K ✈ 19-Oct-2013 ✈ KSRQ - KAPF

Flight Track Log - Related Links

Times and Time Zones

All times are in EDT time to prevent confusion due to time zone crossing. See the N4226K flight status page for this flight to view local times or setup timezone preferences in your user account.

Time Position Orientation Groundspeed Altitude Reporting Facility
EDT Latitude Longitude Course Direction KTS MPH feet Rate Location/Type
01:38PM 27.3667 -82.5500 180° South 112 129 900  Level Tampa TRACON
01:39PM 27.3333 -82.5333 156° South 122 140 1,400 420 Climbing Tampa TRACON
01:40PM 27.3000 -82.5333 180° South 130 150 1,700 420 Climbing Tampa TRACON
01:41PM 27.2667 -82.5333 180° South 126 145 2,300 480 Climbing Tampa TRACON
01:42PM 27.2333 -82.5167 156° South 125 144 2,800 420 Climbing Tampa TRACON
01:43PM 27.2425 -82.3813 135° Southeast  Level FlightAware Approximate
01:43PM 27.2000 -82.5000 156° South 122 140 3,200  Level Tampa TRACON
01:44PM 27.1667 -82.4833 156° South 122 140 3,700 480 Climbing Tampa TRACON
01:45PM 27.1500 -82.4667 138° Southeast 121 139 4,100 420 Climbing Tampa TRACON
01:47PM 27.1319 -82.4049 108° East  Level FlightAware Approximate
01:54PM 26.9128 -82.2630 158° South  Level Estimated
01:55PM 26.9056 -82.2233 101° East  Level FlightAware Approximate
01:56PM 26.8984 -82.1836 101° East  Level FlightAware Approximate
01:57PM 26.8913 -82.1439 101° East  Level FlightAware Approximate
01:58PM 26.8583 -82.1273 157° South  Level Estimated
01:59PM 26.8259 -82.1093 154° Southeast  Level FlightAware Approximate
02:00PM 26.7935 -82.0914 154° Southeast  Level FlightAware Approximate
02:01PM 26.7611 -82.0734 154° Southeast  Level FlightAware Approximate
02:02PM 26.7287 -82.0555 154° Southeast  Level FlightAware Approximate
02:03PM 26.6963 -82.0376 154° Southeast  Level FlightAware Approximate
02:04PM 26.6639 -82.0196 154° Southeast  Level FlightAware Approximate
02:05PM 26.6315 -82.0017 154° Southeast  Level FlightAware Approximate
02:06PM 26.5991 -81.9838 154° Southeast  Level FlightAware Approximate
02:07PM 26.5667 -81.9659 154° Southeast  Level FlightAware Approximate
02:08PM 26.5342 -81.9481 154° Southeast  Level FlightAware Approximate
02:09PM 26.5018 -81.9302 154° Southeast  Level FlightAware Approximate
02:10PM 26.4694 -81.9124 154° Southeast  Level FlightAware Approximate
02:11PM 26.4370 -81.8945 154° Southeast  Level FlightAware Approximate
02:12PM 26.4031 -81.8803 160° South  Level Estimated
02:13PM 26.3694 -81.8658 159° South  Level FlightAware Approximate
02:14PM 26.3357 -81.8512 159° South  Level FlightAware Approximate
02:15PM 26.3020 -81.8367 159° South  Level FlightAware Approximate
02:16PM 26.2683 -81.8222 159° South  Level FlightAware Approximate
02:17PM 26.2345 -81.8077 159° South  Level FlightAware Approximate
02:18PM 26.2004 -81.7944 156° South  Level Estimated
02:19PM 26.1680 -81.7766 154° Southeast  Level FlightAware Approximate
02:20PM 26.1500 -81.7667 156° South  Level FlightAware Approximate
02:21PM 26.1524 -81.7756 156° South  Level Estimated
02:22PM 26.1524 -81.7756 156° South  Level Estimated
02:23PM 26.1524 -81.7756 156° South  Level Estimated
02:24PM 26.1524 -81.7756 156° South  Level Estimated
02:25PM 26.1524 -81.7756 156° South  Level Estimated
02:26PM 26.1524 -81.7756 156° South  Level Estimated